createdAt,value
2022-12-22T00:01:25.810Z,94293
2022-12-22T00:04:51.083Z,94286
2022-12-22T00:08:16.343Z,94285
2022-12-22T00:11:41.619Z,94287
2022-12-22T00:15:06.918Z,94287
2022-12-22T00:18:32.137Z,94271
2022-12-22T00:21:57.417Z,94266
2022-12-22T00:25:22.675Z,94256
2022-12-22T00:28:47.951Z,94258
2022-12-22T00:32:13.256Z,94252
2022-12-22T00:35:38.471Z,94247
2022-12-22T00:39:03.719Z,94249
2022-12-22T00:42:29.019Z,94231
2022-12-22T00:45:54.337Z,94236
2022-12-22T00:49:19.561Z,94222
2022-12-22T00:52:44.800Z,94218
2022-12-22T00:56:10.060Z,94217
2022-12-22T00:59:35.316Z,94206
2022-12-22T01:03:00.704Z,94200
2022-12-22T01:06:25.841Z,94190
2022-12-22T01:09:51.064Z,94187
2022-12-22T01:13:16.319Z,94189
2022-12-22T01:16:41.554Z,94188
2022-12-22T01:20:06.797Z,94184
2022-12-22T01:23:32.068Z,94191
2022-12-22T01:26:57.327Z,94197
2022-12-22T01:30:22.577Z,94200
2022-12-22T01:33:47.813Z,94194
2022-12-22T01:37:13.055Z,94185
2022-12-22T01:40:38.322Z,94180
2022-12-22T01:44:03.539Z,94180
2022-12-22T01:47:28.795Z,94171
2022-12-22T01:50:54.025Z,94161
2022-12-22T01:54:19.274Z,94156
2022-12-22T01:57:44.558Z,94153
2022-12-22T02:01:09.835Z,94141
2022-12-22T02:04:34.997Z,94140
2022-12-22T02:08:00.245Z,94150
2022-12-22T02:11:25.475Z,94153
2022-12-22T02:14:50.744Z,94151
2022-12-22T02:18:15.946Z,94151
2022-12-22T02:21:41.202Z,94153
2022-12-22T02:25:06.430Z,94147
2022-12-22T02:28:31.698Z,94143
2022-12-22T02:31:56.972Z,94140
2022-12-22T02:35:22.158Z,94137
2022-12-22T02:38:47.379Z,94136
2022-12-22T02:42:12.641Z,94140
2022-12-22T02:45:37.879Z,94132
2022-12-22T02:49:03.183Z,94127
2022-12-22T02:52:28.383Z,94113
2022-12-22T02:55:53.602Z,94106
2022-12-22T02:59:18.854Z,94101
2022-12-22T03:02:44.272Z,94101
2022-12-22T03:06:09.362Z,94092
2022-12-22T03:09:34.562Z,94091
2022-12-22T03:12:59.812Z,94086
2022-12-22T03:16:25.123Z,94081
2022-12-22T03:19:50.255Z,94082
2022-12-22T03:23:15.538Z,94076
2022-12-22T03:26:40.729Z,94068
2022-12-22T03:30:05.993Z,94062
2022-12-22T03:33:31.236Z,94048
2022-12-22T03:36:56.477Z,94048
2022-12-22T03:40:21.751Z,94051
2022-12-22T03:43:46.945Z,94048
2022-12-22T03:47:12.272Z,94048
2022-12-22T03:50:37.459Z,94049
2022-12-22T03:54:02.707Z,94046
2022-12-22T03:57:27.983Z,94049
2022-12-22T04:00:53.221Z,94033
2022-12-22T04:04:18.406Z,94036
2022-12-22T04:07:43.665Z,94030
2022-12-22T04:11:08.856Z,94030
2022-12-22T04:14:34.946Z,94034
2022-12-22T04:17:59.323Z,94031
2022-12-22T04:21:24.574Z,94025
2022-12-22T04:24:49.805Z,94023
2022-12-22T04:28:15.082Z,94023
2022-12-22T04:31:40.325Z,94020
2022-12-22T04:35:05.505Z,94013
2022-12-22T04:38:30.740Z,94015
2022-12-22T04:41:55.960Z,94003
2022-12-22T04:45:21.179Z,94000
2022-12-22T04:48:46.441Z,93984
2022-12-22T04:52:11.679Z,93972
2022-12-22T04:55:36.902Z,93974
2022-12-22T04:59:02.147Z,93967
2022-12-22T05:02:27.465Z,93962
2022-12-22T05:05:52.666Z,93965
2022-12-22T05:09:17.876Z,93956
2022-12-22T05:12:43.104Z,93958
2022-12-22T05:16:08.429Z,93949
2022-12-22T05:19:33.590Z,93945
2022-12-22T05:22:58.854Z,93953
2022-12-22T05:26:24.003Z,93942
2022-12-22T05:29:49.239Z,93940
2022-12-22T05:33:15.261Z,93939
2022-12-22T05:36:40.472Z,93935
2022-12-22T05:40:05.788Z,93932
2022-12-22T05:43:31.051Z,93928
2022-12-22T05:46:56.330Z,93923
2022-12-22T05:50:21.583Z,93930
2022-12-22T05:53:46.867Z,93922
2022-12-22T05:57:12.204Z,93916
2022-12-22T06:00:37.437Z,93918
2022-12-22T06:04:02.933Z,93913
2022-12-22T06:07:28.067Z,93891
2022-12-22T06:10:53.368Z,93891
2022-12-22T06:14:18.699Z,93899
2022-12-22T06:17:45.248Z,93899
2022-12-22T06:21:09.325Z,93904
2022-12-22T06:24:34.609Z,93905
2022-12-22T06:27:59.916Z,93904
2022-12-22T06:31:25.284Z,93901
2022-12-22T06:34:50.476Z,93898
2022-12-22T06:38:15.841Z,93891
2022-12-22T06:41:41.141Z,93889
2022-12-22T06:45:06.392Z,93881
2022-12-22T06:48:31.677Z,93883
2022-12-22T06:51:56.888Z,93882
2022-12-22T06:55:22.147Z,93883
2022-12-22T06:58:47.386Z,93868
2022-12-22T07:02:12.824Z,93870
2022-12-22T07:05:37.964Z,93882
2022-12-22T07:09:03.221Z,93867
2022-12-22T07:12:28.472Z,93863
2022-12-22T07:16:01.821Z,93869
2022-12-22T07:19:19.039Z,93865
2022-12-22T07:22:44.445Z,93857
2022-12-22T07:26:09.686Z,93859
2022-12-22T07:29:34.994Z,93861
2022-12-22T07:33:00.307Z,93857
2022-12-22T07:36:25.667Z,93858
2022-12-22T07:39:50.960Z,93842
2022-12-22T07:43:16.202Z,93850
2022-12-22T07:46:41.527Z,93852
2022-12-22T07:50:06.774Z,93854
2022-12-22T07:53:32.083Z,93842
2022-12-22T07:56:57.359Z,93841
2022-12-22T08:00:22.634Z,93841
2022-12-22T08:03:47.920Z,93830
2022-12-22T08:07:13.213Z,93833
2022-12-22T08:10:38.559Z,93827
2022-12-22T08:14:03.872Z,93829
2022-12-22T08:17:29.087Z,93832
2022-12-22T08:20:54.406Z,93824
2022-12-22T08:24:19.715Z,93831
2022-12-22T08:27:44.987Z,93827
2022-12-22T08:31:10.279Z,93829
2022-12-22T08:34:35.599Z,93821
2022-12-22T08:38:00.890Z,93822
2022-12-22T08:41:26.179Z,93821
2022-12-22T08:44:51.442Z,93830
2022-12-22T08:48:16.821Z,93832
2022-12-22T08:51:42.068Z,93829
2022-12-22T08:55:07.376Z,93829
2022-12-22T08:58:32.650Z,93829
2022-12-22T09:01:58.041Z,93825
2022-12-22T09:05:23.233Z,93832
2022-12-22T09:08:48.516Z,93817
2022-12-22T09:12:13.814Z,93819
2022-12-22T09:15:39.055Z,93821
2022-12-22T09:19:04.336Z,93819
2022-12-22T09:22:29.643Z,93809
2022-12-22T09:25:54.889Z,93818
2022-12-22T09:29:20.125Z,93810
2022-12-22T09:32:45.452Z,93805
2022-12-22T09:36:10.731Z,93802
2022-12-22T09:39:35.980Z,93793
2022-12-22T09:43:01.242Z,93813
2022-12-22T09:46:26.603Z,93795
2022-12-22T09:49:51.768Z,93800
2022-12-22T09:53:17.022Z,93807
2022-12-22T09:56:42.360Z,93811
2022-12-22T10:00:07.651Z,93803
2022-12-22T10:03:32.997Z,93802
2022-12-22T10:06:58.229Z,93798
2022-12-22T10:10:23.514Z,93802
2022-12-22T10:13:48.796Z,93795
2022-12-22T10:17:14.041Z,93791
2022-12-22T10:20:39.298Z,93790
2022-12-22T10:24:04.571Z,93782
2022-12-22T10:27:29.868Z,93787
2022-12-22T10:30:55.187Z,93780
2022-12-22T10:34:20.643Z,93775
2022-12-22T10:37:45.932Z,93771
2022-12-22T10:41:11.248Z,93783
2022-12-22T10:44:36.523Z,93776
2022-12-22T10:48:01.795Z,93772
2022-12-22T10:51:27.025Z,93762
2022-12-22T10:54:52.270Z,93752
2022-12-22T10:58:17.556Z,93742
2022-12-22T11:01:42.877Z,93741
2022-12-22T11:05:08.069Z,93737
2022-12-22T11:08:33.301Z,93740
2022-12-22T11:11:58.590Z,93732
2022-12-22T11:15:24.758Z,93734
2022-12-22T11:18:49.076Z,93735
2022-12-22T11:22:14.364Z,93736
2022-12-22T11:25:39.586Z,93730
2022-12-22T11:29:04.861Z,93733
2022-12-22T11:32:30.125Z,93725
2022-12-22T11:35:55.365Z,93709
2022-12-22T11:39:33.734Z,93725
2022-12-22T11:42:58.913Z,93713
2022-12-22T11:46:24.207Z,93715
2022-12-22T11:49:51.159Z,93704
2022-12-22T11:53:17.131Z,93701
2022-12-22T11:56:42.392Z,93701
2022-12-22T12:00:07.859Z,93701
2022-12-22T12:03:33.264Z,93707
2022-12-22T12:06:58.342Z,93703
2022-12-22T12:10:23.682Z,93710
2022-12-22T12:13:48.989Z,93706
2022-12-22T12:17:14.283Z,93713
2022-12-22T12:20:39.561Z,93715
2022-12-22T12:24:04.849Z,93710
2022-12-22T12:27:30.108Z,93706
2022-12-22T12:30:55.490Z,93699
2022-12-22T12:34:20.716Z,93702
2022-12-22T12:37:46.030Z,93710
2022-12-22T12:41:11.336Z,93723
2022-12-22T12:44:36.623Z,93723
2022-12-22T12:48:01.923Z,93705
2022-12-22T12:51:27.200Z,93716
2022-12-22T12:54:52.519Z,93733
2022-12-22T12:58:17.826Z,93744
2022-12-22T13:01:43.254Z,93749
2022-12-22T13:05:08.516Z,93741
2022-12-22T13:08:33.760Z,93747
2022-12-22T13:12:12.020Z,93759
2022-12-22T13:15:24.261Z,93775
2022-12-22T13:18:51.257Z,93788
2022-12-22T13:22:14.865Z,93798
2022-12-22T13:25:40.126Z,93797
2022-12-22T13:29:05.427Z,93800
2022-12-22T13:32:30.736Z,93809
2022-12-22T13:35:58.995Z,93818
2022-12-22T13:39:21.416Z,93817
2022-12-22T13:42:46.788Z,93828
2022-12-22T13:46:12.017Z,93840
2022-12-22T13:50:06.887Z,93836
2022-12-22T13:53:02.661Z,93855
2022-12-22T13:56:27.959Z,93854
2022-12-22T13:59:53.259Z,93864
2022-12-22T14:03:41.549Z,93869
2022-12-22T14:06:44.046Z,93877
2022-12-22T14:10:09.315Z,93886
2022-12-22T14:13:34.677Z,93900
2022-12-22T14:16:59.913Z,93901
2022-12-22T14:20:25.220Z,93906
2022-12-22T14:23:50.633Z,93913
2022-12-22T14:27:15.939Z,93915
2022-12-22T14:30:41.247Z,93915
2022-12-22T15:06:54.562Z,93990
2022-12-22T15:10:19.878Z,93993
2022-12-22T15:13:45.049Z,93993
2022-12-22T15:17:10.438Z,94006
2022-12-22T15:20:39.465Z,94013
2022-12-22T15:24:00.937Z,94020
2022-12-22T15:27:26.084Z,94021
2022-12-22T15:30:51.428Z,94027
2022-12-22T15:34:16.672Z,94033
2022-12-22T15:37:41.996Z,94039
2022-12-22T15:41:07.190Z,94044
2022-12-22T15:44:38.397Z,94045
2022-12-22T15:47:57.535Z,94058
2022-12-22T15:51:22.757Z,94066
2022-12-22T15:54:47.980Z,94079
2022-12-22T15:58:13.188Z,94081
2022-12-22T16:01:38.422Z,94092
2022-12-22T16:05:03.492Z,94091
2022-12-22T16:08:28.682Z,94095
2022-12-22T16:11:53.839Z,94103
2022-12-22T16:15:19.089Z,94105
2022-12-22T16:18:44.252Z,94106
2022-12-22T16:22:15.292Z,94116
2022-12-22T16:26:58.623Z,94115
2022-12-22T16:30:23.749Z,94128
2022-12-22T16:33:48.925Z,94131
2022-12-22T16:37:14.136Z,94133
2022-12-22T16:40:39.331Z,94135
2022-12-22T16:45:16.795Z,94142
2022-12-22T16:48:42.036Z,94139
2022-12-22T16:52:07.211Z,94134
2022-12-22T16:55:32.424Z,94135
2022-12-22T16:58:57.610Z,94133
2022-12-22T17:02:22.971Z,94130
2022-12-22T17:05:48.118Z,94134
2022-12-22T17:09:13.218Z,94132
2022-12-22T17:12:38.408Z,94131
2022-12-22T17:16:03.658Z,94127
2022-12-22T17:19:28.836Z,94140
2022-12-22T17:22:54.361Z,94154
2022-12-22T17:26:19.549Z,94151
2022-12-22T17:29:44.746Z,94149
2022-12-22T17:33:09.956Z,94151
2022-12-22T17:36:35.208Z,94151
2022-12-22T17:40:00.462Z,94151
2022-12-22T17:43:25.580Z,94150
2022-12-22T17:46:50.927Z,94147
2022-12-22T17:50:15.981Z,94150
2022-12-22T17:53:44.281Z,94140
2022-12-22T17:57:09.618Z,94139
2022-12-22T18:00:34.892Z,94131
2022-12-22T18:04:00.200Z,94125
2022-12-22T18:07:25.362Z,94129
2022-12-22T18:10:50.596Z,94130
2022-12-22T18:14:16.511Z,94129
2022-12-22T18:17:41.687Z,94136
2022-12-22T18:21:08.212Z,94133
2022-12-22T18:24:32.511Z,94133
2022-12-22T18:27:57.763Z,94127
2022-12-22T18:31:23.736Z,94128
2022-12-22T18:35:22.275Z,94117
2022-12-22T18:38:47.463Z,94109
2022-12-22T18:42:12.672Z,94114
2022-12-22T18:45:37.877Z,94114
2022-12-22T18:49:05.745Z,94120
2022-12-22T18:52:28.296Z,94120
2022-12-22T18:55:53.524Z,94115
2022-12-22T18:59:18.777Z,94115
2022-12-22T19:02:44.097Z,94110
2022-12-22T19:06:09.325Z,94121
2022-12-22T19:09:34.555Z,94107
2022-12-22T19:12:59.788Z,94107
2022-12-22T19:16:25.144Z,94102
2022-12-22T19:19:50.228Z,94097
2022-12-22T19:23:15.495Z,94095
2022-12-22T19:26:40.707Z,94098
2022-12-22T19:30:05.932Z,94095
2022-12-22T19:33:32.066Z,94095
2022-12-22T19:36:57.355Z,94091
2022-12-22T19:40:22.644Z,94092
2022-12-22T19:43:47.862Z,94087
2022-12-22T19:47:13.074Z,94086
2022-12-22T19:50:38.307Z,94074
2022-12-22T19:54:03.566Z,94080
2022-12-22T19:57:28.788Z,94081
2022-12-22T20:00:54.003Z,94076
2022-12-22T20:04:19.252Z,94066
2022-12-22T20:07:44.479Z,94069
2022-12-22T20:11:09.720Z,94061
2022-12-22T20:14:34.973Z,94063
2022-12-22T20:18:00.227Z,94053
2022-12-22T20:21:25.491Z,94053
2022-12-22T20:24:50.732Z,94049
2022-12-22T20:28:16.022Z,94042
2022-12-22T20:31:41.244Z,94045
2022-12-22T20:35:06.462Z,94044
2022-12-22T20:38:32.603Z,94039
2022-12-22T20:41:57.861Z,94034
2022-12-22T20:45:23.140Z,94029
2022-12-22T20:48:48.429Z,94028
2022-12-22T20:52:13.603Z,94022
2022-12-22T20:55:38.778Z,94022
2022-12-22T20:59:03.984Z,94015
2022-12-22T21:02:29.500Z,94016
2022-12-22T21:05:54.344Z,94021
2022-12-22T21:09:19.485Z,94018
2022-12-22T21:12:44.647Z,94010
2022-12-22T21:16:09.828Z,94000
2022-12-22T21:19:35.027Z,93988
2022-12-22T21:23:00.255Z,93984
2022-12-22T21:26:25.363Z,93983
2022-12-22T21:29:50.541Z,93980
2022-12-22T21:33:15.711Z,93975
2022-12-22T21:36:40.878Z,93967
2022-12-22T21:40:06.080Z,93967
2022-12-22T21:43:31.244Z,93964
2022-12-22T21:46:56.509Z,93969
2022-12-22T21:50:21.579Z,93965
2022-12-22T21:53:46.743Z,93950
2022-12-22T21:57:11.953Z,93944
2022-12-22T22:00:37.100Z,93946
2022-12-22T22:04:02.383Z,93945
2022-12-22T22:07:27.488Z,93949
2022-12-22T22:10:52.640Z,93948
2022-12-22T22:14:17.860Z,93948
2022-12-22T22:17:43.012Z,93958
2022-12-22T22:21:08.190Z,93947
2022-12-22T22:24:33.384Z,93947
2022-12-22T22:27:58.564Z,93947
2022-12-22T22:31:23.808Z,93949
2022-12-22T22:34:48.887Z,93948
2022-12-22T22:38:14.067Z,93951
2022-12-22T22:41:43.095Z,93940
2022-12-22T22:45:04.389Z,93942
2022-12-22T22:48:29.636Z,93942
2022-12-22T22:51:54.779Z,93935
2022-12-22T22:55:19.936Z,93924
2022-12-22T22:58:45.083Z,93924
2022-12-22T23:02:10.371Z,93924
2022-12-22T23:05:35.470Z,93915
2022-12-22T23:09:00.656Z,93911
2022-12-22T23:12:25.810Z,93911
2022-12-22T23:15:50.993Z,93911
2022-12-22T23:19:16.135Z,93900
2022-12-22T23:22:41.389Z,93900
2022-12-22T23:26:06.569Z,93890
2022-12-22T23:29:31.717Z,93888
2022-12-22T23:32:56.890Z,93878
2022-12-22T23:36:22.056Z,93877
2022-12-22T23:39:47.262Z,93869
2022-12-22T23:43:12.404Z,93869
2022-12-22T23:46:37.620Z,93868
2022-12-22T23:50:02.754Z,93861
2022-12-22T23:53:27.948Z,93857
2022-12-22T23:56:53.165Z,93851
